createdAt,value
2023-01-17T00:00:01.588Z,4.7
2023-01-17T00:03:01.612Z,4.7
2023-01-17T00:06:01.352Z,4.7
2023-01-17T00:09:01.325Z,4.7
2023-01-17T00:12:01.419Z,4.7
2023-01-17T00:15:01.560Z,4.7
2023-01-17T00:18:01.364Z,4.7
2023-01-17T00:21:01.337Z,4.7
2023-01-17T00:24:01.467Z,4.7
2023-01-17T00:27:01.404Z,4.7
2023-01-17T00:30:01.350Z,4.7
2023-01-17T00:33:01.343Z,4.7
2023-01-17T00:36:01.583Z,4.7
2023-01-17T00:39:01.342Z,4.7
2023-01-17T00:42:01.409Z,4.7
2023-01-17T00:45:01.260Z,4.7
2023-01-17T00:48:01.573Z,4.6
2023-01-17T00:51:01.399Z,4.6
2023-01-17T00:54:01.455Z,4.6
2023-01-17T00:57:01.434Z,4.6
2023-01-17T01:00:01.564Z,4.6
2023-01-17T01:03:01.390Z,4.6
2023-01-17T01:06:01.411Z,4.6
2023-01-17T01:09:01.389Z,4.6
2023-01-17T01:12:01.416Z,4.6
2023-01-17T01:15:01.377Z,4.6
2023-01-17T01:18:01.394Z,4.6
2023-01-17T01:21:01.369Z,4.6
2023-01-17T01:24:01.422Z,4.6
2023-01-17T01:27:01.282Z,4.6
2023-01-17T01:30:01.547Z,4.6
2023-01-17T01:33:01.399Z,4.6
2023-01-17T01:36:01.476Z,4.6
2023-01-17T01:39:01.440Z,4.6
2023-01-17T01:42:01.352Z,4.6
2023-01-17T01:45:01.561Z,4.6
2023-01-17T01:48:01.311Z,4.6
2023-01-17T01:51:01.334Z,4.6
2023-01-17T01:54:01.403Z,4.6
2023-01-17T01:57:01.366Z,4.6
2023-01-17T02:00:01.357Z,4.6
2023-01-17T02:03:01.349Z,4.5
2023-01-17T02:06:01.372Z,4.5
2023-01-17T02:09:01.364Z,4.5
2023-01-17T02:12:01.360Z,4.5
2023-01-17T02:15:01.549Z,4.5
2023-01-17T02:18:01.410Z,4.5
2023-01-17T02:21:01.459Z,4.5
2023-01-17T02:24:01.349Z,4.5
2023-01-17T02:27:01.397Z,4.5
2023-01-17T02:30:01.416Z,4.5
2023-01-17T02:33:01.422Z,4.5
2023-01-17T02:36:01.623Z,4.5
2023-01-17T02:39:01.332Z,4.5
2023-01-17T02:42:01.402Z,4.5
2023-01-17T02:45:01.547Z,4.5
2023-01-17T02:48:01.523Z,4.4
2023-01-17T02:51:01.302Z,4.4
2023-01-17T02:54:01.448Z,4.4
2023-01-17T02:57:01.491Z,4.4
2023-01-17T03:00:01.419Z,4.4
2023-01-17T03:03:01.374Z,4.4
2023-01-17T03:06:01.375Z,4.3
2023-01-17T03:09:01.718Z,4.3
2023-01-17T03:12:01.402Z,4.3
2023-01-17T03:15:01.477Z,4.3
2023-01-17T03:18:01.390Z,4.3
2023-01-17T03:21:01.346Z,4.3
2023-01-17T03:24:01.434Z,4.3
2023-01-17T03:27:01.451Z,4.3
2023-01-17T03:30:01.468Z,4.3
2023-01-17T03:33:01.367Z,4.3
2023-01-17T03:36:01.344Z,4.3
2023-01-17T03:39:01.361Z,4.3
2023-01-17T03:42:01.439Z,4.3
2023-01-17T03:45:01.382Z,4.3
2023-01-17T03:48:01.390Z,4.3
2023-01-17T03:51:01.354Z,4.3
2023-01-17T03:54:01.506Z,4.3
2023-01-17T03:57:01.379Z,4.3
2023-01-17T04:00:01.471Z,4.3
2023-01-17T04:03:01.420Z,4.3
2023-01-17T04:06:01.773Z,4.3
2023-01-17T04:09:01.582Z,4.3
2023-01-17T04:12:01.557Z,4.3
2023-01-17T04:15:01.528Z,4.3
2023-01-17T04:18:01.439Z,4.3
2023-01-17T04:21:01.387Z,4.2
2023-01-17T04:24:01.545Z,4.2
2023-01-17T04:27:01.454Z,4.2
2023-01-17T04:30:01.334Z,4.2
2023-01-17T04:33:01.596Z,4.2
2023-01-17T04:36:01.380Z,4.2
2023-01-17T04:39:01.467Z,4.2
2023-01-17T04:42:01.478Z,4.2
2023-01-17T04:45:01.349Z,4
2023-01-17T04:48:01.422Z,4
2023-01-17T04:51:01.285Z,4
2023-01-17T04:54:01.418Z,4
2023-01-17T04:57:01.381Z,4
2023-01-17T05:00:01.534Z,4
2023-01-17T05:03:01.432Z,4
2023-01-17T05:06:01.328Z,4
2023-01-17T05:09:01.550Z,4
2023-01-17T05:12:01.409Z,4
2023-01-17T05:15:01.434Z,4
2023-01-17T05:18:01.536Z,4
2023-01-17T05:21:01.423Z,4
2023-01-17T05:24:01.338Z,4
2023-01-17T05:27:01.520Z,4
2023-01-17T05:30:01.328Z,4
2023-01-17T05:33:01.340Z,4
2023-01-17T05:36:01.397Z,4
2023-01-17T05:39:01.405Z,4
2023-01-17T05:42:01.356Z,4
2023-01-17T05:45:01.350Z,4
2023-01-17T05:48:01.573Z,4
2023-01-17T05:51:01.429Z,4
2023-01-17T05:54:01.545Z,4
2023-01-17T05:57:01.307Z,4
2023-01-17T06:00:01.374Z,4
2023-01-17T06:03:01.492Z,4
2023-01-17T06:06:01.443Z,4
2023-01-17T06:09:01.539Z,4
2023-01-17T06:12:01.383Z,4
2023-01-17T06:15:01.312Z,4
2023-01-17T06:18:01.510Z,4
2023-01-17T06:21:01.351Z,4
2023-01-17T06:24:04.278Z,4
2023-01-17T06:27:01.461Z,4
2023-01-17T06:30:01.594Z,4
2023-01-17T06:33:01.347Z,4
2023-01-17T06:36:01.454Z,4
2023-01-17T06:39:01.373Z,4
2023-01-17T06:42:01.356Z,3.9
2023-01-17T06:45:01.353Z,3.9
2023-01-17T06:48:01.275Z,3.9
2023-01-17T06:51:01.464Z,3.9
2023-01-17T06:54:01.355Z,3.9
2023-01-17T06:57:01.541Z,3.9
2023-01-17T07:00:01.481Z,3.9
2023-01-17T07:03:01.452Z,3.9
2023-01-17T07:06:01.335Z,3.6
2023-01-17T07:09:01.337Z,3.6
2023-01-17T07:12:01.341Z,3.6
2023-01-17T07:15:01.482Z,3.6
2023-01-17T07:18:01.358Z,3.6
2023-01-17T07:21:01.368Z,3.6
2023-01-17T07:24:01.432Z,3.3
2023-01-17T07:27:01.581Z,3.3
2023-01-17T07:30:01.313Z,3.3
2023-01-17T07:33:01.544Z,3.3
2023-01-17T07:36:01.406Z,3.3
2023-01-17T07:39:01.405Z,3.2
2023-01-17T07:42:01.406Z,3.2
2023-01-17T07:45:01.544Z,3.2
2023-01-17T07:48:01.410Z,3.2
2023-01-17T07:51:01.489Z,3.2
2023-01-17T07:54:01.444Z,3.2
2023-01-17T07:57:01.490Z,3.1
2023-01-17T08:00:01.521Z,3.1
2023-01-17T08:03:01.491Z,3.1
2023-01-17T08:06:01.547Z,3
2023-01-17T08:09:01.660Z,3
2023-01-17T08:12:01.470Z,3
2023-01-17T08:15:01.456Z,3
2023-01-17T08:18:01.431Z,3
2023-01-17T08:21:01.363Z,3
2023-01-17T08:24:01.415Z,3
2023-01-17T08:27:01.378Z,3
2023-01-17T08:30:01.426Z,3
2023-01-17T08:33:01.478Z,3
2023-01-17T08:36:01.422Z,3
2023-01-17T08:39:01.465Z,3
2023-01-17T08:42:01.385Z,3
2023-01-17T08:45:01.442Z,3
2023-01-17T08:48:01.496Z,3
2023-01-17T08:51:01.433Z,3
2023-01-17T08:54:01.812Z,3
2023-01-17T08:57:01.469Z,3
2023-01-17T09:00:01.449Z,3
2023-01-17T09:03:01.467Z,3
2023-01-17T09:06:01.444Z,3.1
2023-01-17T09:09:01.482Z,3.1
2023-01-17T09:12:01.627Z,3.1
2023-01-17T09:15:01.390Z,3.1
2023-01-17T09:18:01.568Z,3.1
2023-01-17T09:21:01.435Z,3.1
2023-01-17T09:24:01.466Z,3.1
2023-01-17T09:27:01.562Z,3.3
2023-01-17T09:30:01.571Z,3.3
2023-01-17T09:33:01.380Z,3.3
2023-01-17T09:36:01.441Z,3.3
2023-01-17T09:39:01.575Z,3.3
2023-01-17T09:42:01.440Z,3.3
2023-01-17T09:45:01.667Z,3.3
2023-01-17T09:48:01.473Z,3.3
2023-01-17T09:51:01.356Z,3.5
2023-01-17T09:54:01.353Z,3.5
2023-01-17T09:57:01.418Z,3.5
2023-01-17T10:00:04.246Z,3.5
2023-01-17T10:03:01.544Z,3.5
2023-01-17T10:06:01.398Z,3.6
2023-01-17T10:09:01.400Z,3.6
2023-01-17T10:12:01.384Z,3.6
2023-01-17T10:15:01.408Z,3.6
2023-01-17T10:18:01.581Z,3.6
2023-01-17T10:21:01.381Z,3.6
2023-01-17T10:24:01.402Z,3.6
2023-01-17T10:27:01.454Z,3.6
2023-01-17T10:30:01.479Z,3.7
2023-01-17T10:33:01.483Z,3.7
2023-01-17T10:36:01.497Z,3.7
2023-01-17T10:39:01.408Z,3.7
2023-01-17T10:42:01.511Z,3.7
2023-01-17T10:45:01.380Z,3.7
2023-01-17T10:48:01.400Z,3.7
2023-01-17T10:51:01.584Z,3.7
2023-01-17T10:54:02.220Z,3.7
2023-01-17T10:57:01.445Z,3.8
2023-01-17T11:00:01.570Z,3.8
2023-01-17T11:03:01.617Z,3.8
2023-01-17T11:06:01.422Z,3.8
2023-01-17T11:09:01.375Z,3.8
2023-01-17T11:12:01.435Z,3.8
2023-01-17T11:15:01.411Z,3.8
2023-01-17T11:18:01.368Z,3.8
2023-01-17T11:21:01.477Z,3.8
2023-01-17T11:24:01.477Z,3.8
2023-01-17T11:27:01.471Z,3.8
2023-01-17T11:30:01.476Z,3.8
2023-01-17T11:33:01.349Z,3.8
2023-01-17T11:36:01.428Z,3.8
2023-01-17T11:39:01.291Z,3.8
2023-01-17T11:42:01.431Z,3.8
2023-01-17T11:45:01.392Z,3.8
2023-01-17T11:48:01.454Z,3.8
2023-01-17T11:51:01.522Z,3.8
2023-01-17T11:54:01.469Z,4.1
2023-01-17T11:57:01.603Z,4.1
2023-01-17T12:00:01.471Z,4.1
2023-01-17T12:03:01.531Z,4.1
2023-01-17T12:06:01.529Z,4.1
2023-01-17T12:09:01.438Z,4.1
2023-01-17T12:12:04.330Z,4.1
2023-01-17T12:15:01.595Z,4.1
2023-01-17T12:18:01.606Z,4.1
2023-01-17T12:21:01.411Z,4.1
2023-01-17T12:24:01.388Z,4.1
2023-01-17T12:27:01.472Z,4.1
2023-01-17T12:30:01.795Z,4.1
2023-01-17T12:33:01.502Z,4.1
2023-01-17T12:36:01.386Z,4.1
2023-01-17T12:39:01.398Z,4.1
2023-01-17T12:42:01.423Z,4.1
2023-01-17T12:45:01.520Z,4.1
2023-01-17T12:48:01.369Z,4.1
2023-01-17T12:51:01.452Z,4.1
2023-01-17T12:54:01.635Z,4.1
2023-01-17T12:57:01.400Z,4.1
2023-01-17T13:00:01.533Z,4.1
2023-01-17T13:03:01.630Z,4.1
2023-01-17T13:06:01.441Z,4.1
2023-01-17T13:09:01.529Z,4.1
2023-01-17T13:12:01.419Z,4.1
2023-01-17T13:15:01.425Z,4.1
2023-01-17T13:18:01.458Z,4.1
2023-01-17T13:21:01.437Z,4.1
2023-01-17T13:24:01.529Z,4.1
2023-01-17T13:27:01.482Z,4.1
2023-01-17T13:30:01.733Z,4.1
2023-01-17T13:33:01.488Z,4.1
2023-01-17T13:36:01.543Z,4.1
2023-01-17T13:39:01.586Z,4
2023-01-17T13:42:01.629Z,4
2023-01-17T13:45:01.402Z,4
2023-01-17T13:48:01.461Z,4
2023-01-17T13:51:01.391Z,4
2023-01-17T13:54:01.561Z,4
2023-01-17T13:57:01.438Z,4
2023-01-17T14:00:01.527Z,4
2023-01-17T14:03:01.491Z,4
2023-01-17T14:06:01.415Z,4
2023-01-17T14:09:01.642Z,4
2023-01-17T14:12:01.468Z,4
2023-01-17T14:15:01.497Z,4
2023-01-17T14:18:01.346Z,4
2023-01-17T14:21:01.378Z,4
2023-01-17T14:24:01.693Z,4
2023-01-17T14:27:01.420Z,4
2023-01-17T14:30:02.592Z,3.9
2023-01-17T14:33:02.220Z,3.9
2023-01-17T14:36:01.484Z,3.9
2023-01-17T14:39:01.497Z,3.9
2023-01-17T14:42:01.408Z,3.9
2023-01-17T14:45:01.462Z,3.9
2023-01-17T14:48:01.461Z,3.9
2023-01-17T14:51:01.466Z,3.9
2023-01-17T14:54:01.436Z,3.9
2023-01-17T14:57:01.424Z,3.9
2023-01-17T15:00:01.525Z,3.8
2023-01-17T15:03:01.462Z,3.8
2023-01-17T15:06:04.745Z,3.8
2023-01-17T15:09:01.505Z,3.8
2023-01-17T15:12:01.385Z,3.8
2023-01-17T15:15:01.601Z,3.8
2023-01-17T15:18:01.391Z,3.8
2023-01-17T15:21:01.479Z,3.5
2023-01-17T15:24:01.465Z,3.5
2023-01-17T15:27:01.393Z,3.5
2023-01-17T15:30:01.437Z,3.5
2023-01-17T15:33:01.410Z,3.5
2023-01-17T15:36:01.338Z,3.5
2023-01-17T15:39:01.366Z,3.5
2023-01-17T15:42:01.402Z,3.5
2023-01-17T15:45:01.512Z,3.5
2023-01-17T15:48:01.506Z,3.5
2023-01-17T15:51:01.350Z,3.5
2023-01-17T15:54:01.316Z,3.5
2023-01-17T15:57:01.344Z,3.5
2023-01-17T16:00:01.523Z,3.5
2023-01-17T16:03:01.528Z,3.5
2023-01-17T16:06:01.358Z,3.5
2023-01-17T16:09:01.364Z,3.5
2023-01-17T16:12:01.307Z,3.5
2023-01-17T16:15:13.011Z,3
2023-01-17T16:18:01.353Z,3
2023-01-17T16:21:01.468Z,3
2023-01-17T16:24:01.378Z,3
2023-01-17T16:27:01.326Z,3
2023-01-17T16:30:01.508Z,3
2023-01-17T16:33:01.292Z,2.5
2023-01-17T16:36:01.410Z,2.5
2023-01-17T16:39:01.296Z,2.5
2023-01-17T16:42:01.365Z,2.5
2023-01-17T16:45:01.341Z,2.5
2023-01-17T16:48:01.341Z,2.5
2023-01-17T16:51:01.343Z,2.5
2023-01-17T16:54:01.319Z,2.5
2023-01-17T16:57:01.316Z,2.5
2023-01-17T17:00:01.376Z,2.5
2023-01-17T17:03:01.455Z,2.5
2023-01-17T17:06:01.367Z,2
2023-01-17T17:09:01.509Z,2
2023-01-17T17:12:01.427Z,2
2023-01-17T17:15:01.340Z,2
2023-01-17T17:18:01.345Z,2
2023-01-17T17:21:01.372Z,1.8
2023-01-17T17:24:01.303Z,1.8
2023-01-17T17:27:01.387Z,1.8
2023-01-17T17:30:01.502Z,1.8
2023-01-17T17:33:01.359Z,1.8
2023-01-17T17:36:01.311Z,1.8
2023-01-17T17:39:01.329Z,1.8
2023-01-17T17:42:01.353Z,1.8
2023-01-17T17:45:01.411Z,1.8
2023-01-17T17:48:01.413Z,1.8
2023-01-17T17:51:01.309Z,1.8
2023-01-17T17:54:01.391Z,1.8
2023-01-17T17:57:01.315Z,1.5
2023-01-17T18:00:01.440Z,1.5
2023-01-17T18:03:01.389Z,1.5
2023-01-17T18:06:01.384Z,1.4
2023-01-17T18:09:01.395Z,1.4
2023-01-17T18:12:01.347Z,1.4
2023-01-17T18:15:01.349Z,1.4
2023-01-17T18:18:01.328Z,1.4
2023-01-17T18:21:01.384Z,1.4
2023-01-17T18:24:01.412Z,1.4
2023-01-17T18:27:01.354Z,1.4
2023-01-17T18:30:01.384Z,1.4
2023-01-17T18:33:01.395Z,1.4
2023-01-17T18:36:04.772Z,1.4
2023-01-17T18:39:01.367Z,1.4
2023-01-17T18:42:01.430Z,0.9
2023-01-17T18:45:01.343Z,0.9
2023-01-17T18:48:01.381Z,0.9
2023-01-17T18:51:01.345Z,0.9
2023-01-17T18:54:01.406Z,0.9
2023-01-17T18:57:01.552Z,0.7
2023-01-17T19:00:01.391Z,0.7
2023-01-17T19:03:01.288Z,0.7
2023-01-17T19:06:01.456Z,0.7
2023-01-17T19:09:01.400Z,0.7
2023-01-17T19:12:01.447Z,0.6
2023-01-17T19:15:01.370Z,0.6
2023-01-17T19:18:01.353Z,0.6
2023-01-17T19:21:01.351Z,0.6
2023-01-17T19:24:01.291Z,0.6
2023-01-17T19:27:01.297Z,0.6
2023-01-17T19:30:01.500Z,0.6
2023-01-17T19:33:01.314Z,0.6
2023-01-17T19:36:01.413Z,0.3
2023-01-17T19:39:06.462Z,0.3
2023-01-17T19:42:01.344Z,0.3
2023-01-17T19:45:01.397Z,0.3
2023-01-17T19:48:01.394Z,0.3
2023-01-17T19:51:01.310Z,0.3
2023-01-17T19:54:01.968Z,0.2
2023-01-17T19:57:01.312Z,0.1
2023-01-17T20:00:01.391Z,0.1
2023-01-17T20:03:01.438Z,0.1
2023-01-17T20:06:01.358Z,0.1
2023-01-17T20:09:01.412Z,0.1
2023-01-17T20:12:01.359Z,0.1
2023-01-17T20:15:01.418Z,0.1
2023-01-17T20:18:01.321Z,0.1
2023-01-17T20:21:01.413Z,0.1
2023-01-17T20:24:01.344Z,0.1
2023-01-17T20:27:01.403Z,-0.1
2023-01-17T20:30:19.940Z,-0.1
2023-01-17T20:33:01.419Z,-0.1
2023-01-17T20:36:11.205Z,-0.1
2023-01-17T20:39:01.355Z,-0.1
2023-01-17T20:42:01.357Z,-0.1
2023-01-17T20:45:01.346Z,-0.1
2023-01-17T20:48:01.381Z,-0.1
2023-01-17T20:51:01.375Z,-0.1
2023-01-17T20:54:01.305Z,-0.3
2023-01-17T20:57:01.724Z,-0.3
2023-01-17T21:00:01.432Z,-0.3
2023-01-17T21:03:01.495Z,-0.3
2023-01-17T21:06:01.408Z,-0.3
2023-01-17T21:09:01.329Z,-0.3
2023-01-17T21:12:01.544Z,-0.3
2023-01-17T21:15:01.452Z,-0.5
2023-01-17T21:18:01.378Z,-0.5
2023-01-17T21:21:01.337Z,-0.5
2023-01-17T21:24:01.466Z,-0.7
2023-01-17T21:27:01.335Z,-0.7
2023-01-17T21:30:01.338Z,-0.7
2023-01-17T21:33:01.363Z,-0.7
2023-01-17T21:36:01.404Z,-0.7
2023-01-17T21:39:01.271Z,-0.8
2023-01-17T21:42:01.406Z,-0.8
2023-01-17T21:45:01.770Z,-0.8
2023-01-17T21:48:01.424Z,-0.8
2023-01-17T21:51:01.512Z,-0.8
2023-01-17T21:54:01.414Z,-0.8
2023-01-17T21:57:01.358Z,-0.9
2023-01-17T22:00:01.446Z,-0.9
2023-01-17T22:03:01.387Z,-0.9
2023-01-17T22:06:01.445Z,-1
2023-01-17T22:09:01.335Z,-1
2023-01-17T22:12:01.370Z,-1
2023-01-17T22:15:01.346Z,-1
2023-01-17T22:18:01.392Z,-1
2023-01-17T22:21:01.411Z,-1
2023-01-17T22:24:01.435Z,-1
2023-01-17T22:27:01.379Z,-1
2023-01-17T22:30:01.424Z,-1
2023-01-17T22:33:01.413Z,-1
2023-01-17T22:36:01.415Z,-1
2023-01-17T22:39:01.382Z,-1
2023-01-17T22:42:01.350Z,-1
2023-01-17T22:45:01.349Z,-1
2023-01-17T22:48:01.361Z,-1
2023-01-17T22:51:02.591Z,-1
2023-01-17T22:54:01.450Z,-1
2023-01-17T22:57:01.427Z,-1
2023-01-17T23:00:01.494Z,-1
2023-01-17T23:03:01.759Z,-1.1
2023-01-17T23:06:01.276Z,-1.1
2023-01-17T23:09:01.493Z,-1.1
2023-01-17T23:12:01.331Z,-1.1
2023-01-17T23:15:01.329Z,-1.1
2023-01-17T23:18:01.341Z,-1.1
2023-01-17T23:21:01.370Z,-1.1
2023-01-17T23:24:01.375Z,-1.1
2023-01-17T23:27:01.331Z,-1.1
2023-01-17T23:30:01.547Z,-1.1
2023-01-17T23:33:01.363Z,-1.1
2023-01-17T23:36:01.381Z,-1.2
2023-01-17T23:39:01.343Z,-1.2
2023-01-17T23:42:01.328Z,-1.2
2023-01-17T23:45:01.360Z,-1.2
2023-01-17T23:48:01.405Z,-1.2
2023-01-17T23:51:01.401Z,-1.2
2023-01-17T23:54:01.396Z,-1.2
2023-01-17T23:57:01.373Z,-1.2
